createdAt,value
2019-05-16T00:00:29.508Z,101719.06
2019-05-16T00:03:01.248Z,101712.39
2019-05-16T00:05:32.539Z,101709.15
2019-05-16T00:08:04.127Z,101707.26
2019-05-16T00:10:35.289Z,101693.97
2019-05-16T00:13:08.482Z,101697.52
2019-05-16T00:15:39.428Z,101693.48
2019-05-16T00:18:10.707Z,101687.77
2019-05-16T00:20:42.016Z,101681.63
2019-05-16T00:23:13.275Z,101682.57
2019-05-16T00:25:44.522Z,101679.28
2019-05-16T00:28:17.971Z,101681.31
2019-05-16T00:30:50.194Z,101672.80
2019-05-16T00:33:21.411Z,101672.23
2019-05-16T00:36:02.490Z,101675.09
2019-05-16T00:38:27.743Z,101668.81
2019-05-16T00:40:59.134Z,101668.20
2019-05-16T00:43:30.376Z,101661.17
2019-05-16T00:46:01.609Z,101656.41
2019-05-16T00:48:32.994Z,101656.54
2019-05-16T00:51:04.545Z,101653.58
2019-05-16T00:53:38.084Z,101648.60
2019-05-16T00:56:08.999Z,101649.63
2019-05-16T00:58:40.230Z,101641.07
2019-05-16T01:01:11.614Z,101638.55
2019-05-16T01:03:42.887Z,101638.38
2019-05-16T01:06:19.870Z,101639.09
2019-05-16T01:08:48.800Z,101636.28
2019-05-16T01:11:21.537Z,101630.02
2019-05-16T01:13:52.767Z,101631.23
2019-05-16T01:16:24.004Z,101623.66
2019-05-16T01:18:55.143Z,101618.30
2019-05-16T01:21:28.573Z,101619.53
2019-05-16T01:23:59.174Z,101612.42
2019-05-16T01:26:30.357Z,101614.58
2019-05-16T01:29:01.597Z,101608.70
2019-05-16T01:31:32.794Z,101607.30
2019-05-16T01:34:05.130Z,101607.70
2019-05-16T01:36:39.952Z,101602.86
2019-05-16T01:39:09.389Z,101598.70
2019-05-16T01:41:40.762Z,101598.70
2019-05-16T01:44:11.953Z,101600.02
2019-05-16T01:46:43.152Z,101592.95
2019-05-16T01:49:14.324Z,101593.75
2019-05-16T01:51:45.503Z,101589.31
2019-05-16T01:54:18.017Z,101588.80
2019-05-16T01:56:49.332Z,101584.36
2019-05-16T01:59:20.707Z,101579.41
2019-05-16T02:01:53.567Z,101573.22
2019-05-16T02:04:24.810Z,101571.42
2019-05-16T02:06:58.293Z,101567.08
2019-05-16T02:09:28.852Z,101561.69
2019-05-16T02:11:59.972Z,101558.25
2019-05-16T02:14:31.176Z,101565.23
2019-05-16T02:17:02.339Z,101557.66
2019-05-16T02:19:33.549Z,101555.10
2019-05-16T02:22:04.796Z,101551.59
2019-05-16T02:24:38.428Z,101549.75
2019-05-16T02:27:09.676Z,101548.87
2019-05-16T02:29:40.914Z,101543.09
2019-05-16T02:32:12.088Z,101543.00
2019-05-16T02:34:43.308Z,101541.16
2019-05-16T02:37:24.619Z,101546.03
2019-05-16T02:39:47.382Z,101538.87
2019-05-16T02:42:21.267Z,101538.36
2019-05-16T02:44:51.618Z,101529.06
2019-05-16T02:47:22.936Z,101531.52
2019-05-16T02:49:54.306Z,101528.28
2019-05-16T02:52:25.697Z,101526.88
2019-05-16T02:54:56.901Z,101517.58
2019-05-16T02:57:31.321Z,101523.25
2019-05-16T03:00:02.441Z,101513.52
2019-05-16T03:02:33.738Z,101519.21
2019-05-16T03:05:04.994Z,101516.58
2019-05-16T03:07:41.894Z,101511.63
2019-05-16T03:10:11.071Z,101511.63
2019-05-16T03:12:43.876Z,101507.16
2019-05-16T03:15:15.123Z,101509.22
2019-05-16T03:17:47.387Z,101507.30
2019-05-16T03:20:21.219Z,101505.07
2019-05-16T03:22:52.115Z,101499.23
2019-05-16T03:25:23.518Z,101498.63
2019-05-16T03:27:54.963Z,101490.13
2019-05-16T03:30:26.225Z,101498.65
2019-05-16T03:32:57.430Z,101491.86
2019-05-16T03:35:33.354Z,101487.34
2019-05-16T03:38:05.343Z,101486.34
2019-05-16T03:40:36.311Z,101484.85
2019-05-16T03:43:07.576Z,101485.25
2019-05-16T03:45:41.824Z,101486.48
2019-05-16T03:48:12.341Z,101492.05
2019-05-16T03:50:43.568Z,101474.74
2019-05-16T03:53:14.839Z,101472.86
2019-05-16T03:55:46.034Z,101463.56
2019-05-16T03:58:22.116Z,101462.12
2019-05-16T04:00:54.592Z,101458.48
2019-05-16T04:03:28.958Z,101447.80
2019-05-16T04:06:01.151Z,101446.87
2019-05-16T04:08:33.145Z,101446.39
2019-05-16T04:11:04.341Z,101451.16
2019-05-16T04:13:35.503Z,101445.52
2019-05-16T04:16:06.814Z,101444.92
2019-05-16T04:18:38.117Z,101438.66
2019-05-16T04:21:11.754Z,101439.88
2019-05-16T04:23:42.872Z,101437.47
2019-05-16T04:26:14.245Z,101434.75
2019-05-16T04:28:45.831Z,101433.27
2019-05-16T04:31:17.166Z,101437.00
2019-05-16T04:33:51.417Z,101428.94
2019-05-16T04:36:21.630Z,101427.01
2019-05-16T04:38:52.869Z,101433.31
2019-05-16T04:41:24.108Z,101427.45
2019-05-16T04:43:55.374Z,101427.36
2019-05-16T04:46:26.906Z,101426.75
2019-05-16T04:49:01.475Z,101419.17
2019-05-16T04:51:31.321Z,101413.92
2019-05-16T04:54:06.748Z,101416.06
2019-05-16T04:56:35.539Z,101408.80
2019-05-16T04:59:06.895Z,101415.09
2019-05-16T05:01:41.081Z,101411.46
2019-05-16T05:04:15.280Z,101413.39
2019-05-16T05:06:44.267Z,101413.30
2019-05-16T05:09:15.737Z,101412.69
2019-05-16T05:11:47.142Z,101403.41
2019-05-16T05:14:21.057Z,101409.27
2019-05-16T05:16:51.396Z,101405.15
2019-05-16T05:19:22.762Z,101399.19
2019-05-16T05:21:54.097Z,101399.02
2019-05-16T05:24:25.340Z,101402.43
2019-05-16T05:26:56.699Z,101402.73
2019-05-16T05:29:30.551Z,101391.95
2019-05-16T05:32:04.379Z,101400.53
2019-05-16T05:34:34.227Z,101402.98
2019-05-16T05:37:05.588Z,101402.45
2019-05-16T05:39:39.736Z,101403.59
2019-05-16T05:42:11.115Z,101402.09
2019-05-16T05:44:42.433Z,101399.47
2019-05-16T05:47:13.914Z,101405.51
2019-05-16T05:49:45.366Z,101400.69
2019-05-16T05:52:16.667Z,101400.16
2019-05-16T05:54:50.151Z,101403.19
2019-05-16T05:57:21.040Z,101397.54
2019-05-16T05:59:52.265Z,101397.45
2019-05-16T06:02:23.501Z,101394.83
2019-05-16T06:04:54.787Z,101395.61
2019-05-16T06:07:26.036Z,101393.60
2019-05-16T06:09:57.310Z,101391.89
2019-05-16T06:12:30.322Z,101389.27
2019-05-16T06:15:08.429Z,101389.17
2019-05-16T06:17:35.222Z,101388.25
2019-05-16T06:20:14.062Z,101391.80
2019-05-16T06:22:40.509Z,101386.95
2019-05-16T06:25:13.170Z,101387.73
2019-05-16T06:27:44.871Z,101386.33
2019-05-16T06:30:16.737Z,101388.56
2019-05-16T06:32:50.158Z,101384.14
2019-05-16T06:35:23.954Z,101383.61
2019-05-16T06:37:54.266Z,101386.09
2019-05-16T06:40:26.516Z,101379.65
2019-05-16T06:43:00.230Z,101380.35
2019-05-16T06:45:32.062Z,101374.00
2019-05-16T06:48:03.432Z,101379.25
2019-05-16T06:50:34.940Z,101374.00
2019-05-16T06:53:06.192Z,101373.12
2019-05-16T06:55:37.444Z,101372.69
2019-05-16T06:58:10.605Z,101370.88
2019-05-16T07:00:41.623Z,101368.26
2019-05-16T07:03:12.862Z,101364.32
2019-05-16T07:05:44.148Z,101361.70
2019-05-16T07:08:15.411Z,101361.17
2019-05-16T07:10:46.833Z,101354.30
2019-05-16T07:13:19.655Z,101352.77
2019-05-16T07:15:51.271Z,101344.11
2019-05-16T07:18:22.620Z,101341.17
2019-05-16T07:20:54.391Z,101329.36
2019-05-16T07:23:25.981Z,101336.41
2019-05-16T07:25:57.446Z,101333.88
2019-05-16T07:28:30.184Z,101334.87
2019-05-16T07:31:14.467Z,101331.95
2019-05-16T07:33:34.644Z,101326.39
2019-05-16T07:36:06.075Z,101327.00
2019-05-16T07:38:39.876Z,101323.94
2019-05-16T07:41:14.013Z,101321.31
2019-05-16T07:43:43.594Z,101312.12
2019-05-16T07:46:14.955Z,101299.91
2019-05-16T07:48:46.183Z,101300.81
2019-05-16T07:51:17.467Z,101300.39
2019-05-16T07:53:50.465Z,101312.33
2019-05-16T07:56:21.769Z,101306.25
2019-05-16T07:58:53.135Z,101307.65
2019-05-16T08:01:24.379Z,101305.45
2019-05-16T08:03:59.855Z,101302.83
2019-05-16T08:06:33.872Z,101302.30
2019-05-16T08:09:07.723Z,101294.03
2019-05-16T08:11:40.663Z,101293.29
2019-05-16T08:14:11.337Z,101289.34
2019-05-16T08:16:42.565Z,101292.41
2019-05-16T08:19:13.819Z,101285.93
2019-05-16T08:21:45.227Z,101283.91
2019-05-16T08:24:16.505Z,101288.59
2019-05-16T08:26:50.506Z,101284.34
2019-05-16T08:29:22.125Z,101282.72
2019-05-16T08:31:53.893Z,101280.30
2019-05-16T08:34:25.359Z,101281.18
2019-05-16T08:36:56.664Z,101277.36
2019-05-16T08:39:30.580Z,101270.45
2019-05-16T08:42:08.166Z,101272.76
2019-05-16T08:44:34.036Z,101267.63
2019-05-16T08:49:41.901Z,101262.23
2019-05-16T08:50:05.529Z,101269.59
2019-05-16T08:52:11.781Z,101265.34
2019-05-16T08:54:44.141Z,101254.03
2019-05-16T08:57:27.121Z,101258.86
2019-05-16T09:02:27.812Z,101257.23
2019-05-16T09:04:55.741Z,101252.41
2019-05-16T09:07:27.083Z,101251.57
2019-05-16T09:10:00.275Z,101248.03
2019-05-16T09:10:15.891Z,101254.52
2019-05-16T09:12:31.343Z,101250.26
2019-05-16T09:15:02.760Z,101250.66
2019-05-16T09:17:34.249Z,101254.11
2019-05-16T09:20:07.402Z,101253.80
2019-05-16T09:22:39.177Z,101256.91
2019-05-16T09:25:10.704Z,101244.29
2019-05-16T09:27:42.131Z,101240.75
2019-05-16T09:30:16.798Z,101239.03
2019-05-16T09:32:48.103Z,101232.15
2019-05-16T09:35:19.587Z,101219.09
2019-05-16T09:37:50.869Z,101221.48
2019-05-16T09:40:22.258Z,101224.59
2019-05-16T09:42:53.864Z,101224.59
2019-05-16T09:45:27.241Z,101218.62
2019-05-16T09:47:58.227Z,101217.39
2019-05-16T09:50:29.426Z,101220.19
2019-05-16T09:53:00.719Z,101221.02
2019-05-16T09:55:31.983Z,101224.13
2019-05-16T09:58:03.353Z,101217.56
2019-05-16T10:00:37.358Z,101219.70
2019-05-16T10:03:08.554Z,101219.39
2019-05-16T10:05:40.109Z,101217.44
2019-05-16T10:08:11.567Z,101214.90
2019-05-16T10:10:43.620Z,101209.32
2019-05-16T10:13:17.967Z,101204.62
2019-05-16T10:15:47.931Z,101204.14
2019-05-16T10:18:30.709Z,101197.25
2019-05-16T10:21:01.918Z,101198.25
2019-05-16T10:23:33.196Z,101189.61
2019-05-16T10:26:04.439Z,101191.92
2019-05-16T10:28:38.388Z,101186.34
2019-05-16T10:31:08.585Z,101186.42
2019-05-16T10:33:39.793Z,101181.67
2019-05-16T10:36:11.165Z,101177.89
2019-05-16T10:38:42.533Z,101181.12
2019-05-16T10:41:13.894Z,101178.05
2019-05-16T10:43:47.302Z,101174.30
2019-05-16T10:46:18.099Z,101183.34
2019-05-16T10:48:49.299Z,101180.58
2019-05-16T10:51:23.762Z,101173.33
2019-05-16T10:54:05.664Z,101169.78
2019-05-16T10:56:26.487Z,101174.17
2019-05-16T10:59:26.061Z,101167.84
2019-05-16T11:01:31.471Z,101170.20
2019-05-16T11:04:02.925Z,101170.48
2019-05-16T11:06:34.235Z,101157.06
2019-05-16T11:09:06.923Z,101161.00
2019-05-16T11:11:38.510Z,101163.79
2019-05-16T11:14:09.785Z,101160.89
2019-05-16T11:16:41.065Z,101161.95
2019-05-16T11:19:20.053Z,101164.02
2019-05-16T11:21:46.964Z,101162.99
2019-05-16T11:24:18.362Z,101167.34
2019-05-16T11:26:49.802Z,101157.58
2019-05-16T11:29:21.020Z,101160.09
2019-05-16T11:31:53.385Z,101154.27
2019-05-16T11:34:26.664Z,101159.02
2019-05-16T11:36:57.789Z,101159.02
2019-05-16T11:39:29.208Z,101152.44
2019-05-16T11:42:00.635Z,101153.76
2019-05-16T11:44:32.194Z,101148.81
2019-05-16T11:47:03.441Z,101155.39
2019-05-16T11:49:36.754Z,101154.52
2019-05-16T11:52:07.731Z,101157.55
2019-05-16T11:54:39.037Z,101152.28
2019-05-16T11:57:10.276Z,101154.52
2019-05-16T11:59:41.545Z,101145.71
2019-05-16T12:02:12.851Z,101146.63
2019-05-16T12:04:47.030Z,101138.81
2019-05-16T12:07:19.106Z,101144.15
2019-05-16T12:09:55.078Z,101133.62
2019-05-16T12:12:23.105Z,101122.30
2019-05-16T12:14:55.956Z,101121.46
2019-05-16T12:17:28.051Z,101116.13
2019-05-16T12:19:59.734Z,101111.41
2019-05-16T12:22:31.239Z,101111.02
2019-05-16T12:25:02.643Z,101108.38
2019-05-16T12:27:34.410Z,101112.52
2019-05-16T12:30:12.917Z,101112.52
2019-05-16T12:32:40.473Z,101113.39
2019-05-16T12:35:12.571Z,101112.52
2019-05-16T12:37:43.801Z,101105.50
2019-05-16T12:40:15.681Z,101108.13
2019-05-16T12:42:47.370Z,101099.36
2019-05-16T12:45:18.944Z,101101.99
2019-05-16T12:47:50.288Z,101094.09
2019-05-16T12:50:24.014Z,101096.38
2019-05-16T12:52:56.930Z,101092.64
2019-05-16T12:55:28.386Z,101088.77
2019-05-16T12:58:12.777Z,101089.36
2019-05-16T13:00:32.710Z,101092.55
2019-05-16T13:03:04.076Z,101097.99
2019-05-16T13:05:37.565Z,101090.17
2019-05-16T13:08:08.626Z,101073.62
2019-05-16T13:10:39.849Z,101079.39
2019-05-16T13:13:11.137Z,101071.17
2019-05-16T13:15:42.585Z,101083.89
2019-05-16T13:18:13.917Z,101077.06
2019-05-16T13:20:46.797Z,101070.59
2019-05-16T13:23:18.552Z,101073.38
2019-05-16T13:25:49.731Z,101073.04
2019-05-16T13:28:21.053Z,101065.07
2019-05-16T13:30:52.356Z,101061.52
2019-05-16T13:33:23.601Z,101051.47
2019-05-16T13:35:57.603Z,101047.52
2019-05-16T13:38:28.206Z,101049.83
2019-05-16T13:40:59.624Z,101055.75
2019-05-16T13:43:30.965Z,101051.03
2019-05-16T13:46:02.315Z,101052.91
2019-05-16T13:48:34.231Z,101050.61
2019-05-16T13:51:13.949Z,101046.66
2019-05-16T13:53:38.786Z,101041.39
2019-05-16T13:56:13.332Z,101043.70
2019-05-16T13:58:43.019Z,101039.30
2019-05-16T14:01:16.964Z,101041.13
2019-05-16T14:03:48.182Z,101040.22
2019-05-16T14:06:20.053Z,101035.87
2019-05-16T14:08:51.377Z,101027.45
2019-05-16T14:11:22.846Z,101023.94
2019-05-16T14:13:56.303Z,101030.16
2019-05-16T14:16:27.317Z,101023.17
2019-05-16T14:18:58.643Z,101027.08
2019-05-16T14:21:29.903Z,101031.92
2019-05-16T14:24:01.153Z,101036.95
2019-05-16T14:26:32.551Z,101036.33
2019-05-16T14:29:03.889Z,101032.06
2019-05-16T14:31:37.695Z,101025.41
2019-05-16T14:34:08.993Z,101019.59
2019-05-16T14:36:40.270Z,101018.61
2019-05-16T14:39:11.623Z,101018.09
2019-05-16T14:41:42.929Z,101014.48
2019-05-16T14:44:17.982Z,101017.95
2019-05-16T14:46:47.707Z,101018.36
2019-05-16T14:49:19.515Z,101014.00
2019-05-16T14:51:50.989Z,101017.48
2019-05-16T14:54:22.783Z,101018.43
2019-05-16T14:56:54.112Z,101014.48
2019-05-16T14:59:27.866Z,101004.92
2019-05-16T15:01:58.668Z,101010.94
2019-05-16T15:04:30.267Z,101016.20
2019-05-16T15:07:01.848Z,101012.34
2019-05-16T15:09:33.445Z,101018.67
2019-05-16T15:12:06.881Z,101020.16
2019-05-16T15:14:38.073Z,101015.09
2019-05-16T15:17:09.555Z,101017.59
2019-05-16T15:19:40.874Z,101022.28
2019-05-16T15:22:12.174Z,101012.01
2019-05-16T15:24:43.614Z,101012.85
2019-05-16T15:27:29.990Z,101014.57
2019-05-16T15:30:09.981Z,101009.23
2019-05-16T15:32:42.512Z,101005.69
2019-05-16T15:35:22.706Z,101008.33
2019-05-16T15:37:58.774Z,101005.69
2019-05-16T15:40:28.323Z,101006.60
2019-05-16T15:42:59.651Z,101014.50
2019-05-16T15:45:43.388Z,101012.27
2019-05-16T15:48:17.182Z,101010.95
2019-05-16T15:50:48.392Z,101007.00
2019-05-16T15:53:19.615Z,101007.00
2019-05-16T15:55:51.006Z,100995.15
2019-05-16T15:58:22.372Z,100993.02
2019-05-16T16:00:57.616Z,100997.85
2019-05-16T16:03:28.030Z,100999.61
2019-05-16T16:05:59.239Z,100995.66
2019-05-16T16:08:30.571Z,100999.61
2019-05-16T16:11:01.820Z,100993.90
2019-05-16T16:13:33.161Z,100994.81
2019-05-16T16:16:09.204Z,100999.67
2019-05-16T16:18:37.966Z,100993.02
2019-05-16T16:21:09.413Z,100994.81
2019-05-16T16:23:40.723Z,100989.54
2019-05-16T16:26:12.026Z,100984.27
2019-05-16T16:28:43.280Z,100988.22
2019-05-16T16:31:16.700Z,100985.11
2019-05-16T16:33:48.505Z,100989.07
2019-05-16T16:36:19.697Z,100985.59
2019-05-16T16:38:50.884Z,100987.38
2019-05-16T16:41:22.129Z,100986.97
2019-05-16T16:43:53.375Z,100989.68
2019-05-16T16:46:26.924Z,100993.30
2019-05-16T16:48:57.688Z,100987.62
2019-05-16T16:51:29.117Z,100993.80
2019-05-16T16:54:01.299Z,100994.78
2019-05-16T16:56:32.681Z,100994.67
2019-05-16T16:59:06.304Z,100992.48
2019-05-16T17:01:37.346Z,100992.95
2019-05-16T17:04:11.713Z,100994.78
2019-05-16T17:06:43.076Z,100993.47
2019-05-16T17:09:14.594Z,101000.53
2019-05-16T17:11:46.547Z,100998.30
2019-05-16T17:14:17.930Z,100999.20
2019-05-16T17:16:49.185Z,101003.64
2019-05-16T17:19:20.502Z,101003.16
2019-05-16T17:22:06.310Z,101004.95
2019-05-16T17:24:27.235Z,101008.02
2019-05-16T17:26:59.252Z,101008.44
2019-05-16T17:29:30.722Z,101009.82
2019-05-16T17:32:07.115Z,101006.27
2019-05-16T17:34:37.159Z,101004.95
2019-05-16T17:37:09.683Z,101010.22
2019-05-16T17:39:41.193Z,101001.38
2019-05-16T17:42:12.606Z,101002.69
2019-05-16T17:44:44.078Z,101002.18
2019-05-16T17:47:17.327Z,101006.64
2019-05-16T17:49:48.305Z,101010.16
2019-05-16T17:52:19.556Z,101006.64
2019-05-16T17:54:53.258Z,101001.38
2019-05-16T17:57:23.756Z,101004.00
2019-05-16T17:59:57.252Z,100998.63
2019-05-16T18:02:28.036Z,101004.81
2019-05-16T18:04:59.645Z,101010.09
2019-05-16T18:07:31.129Z,101006.13
2019-05-16T18:10:07.492Z,101013.13
2019-05-16T18:12:41.021Z,101008.70
2019-05-16T18:15:14.725Z,101007.86
2019-05-16T18:17:47.286Z,101006.06
2019-05-16T18:20:22.020Z,101008.77
2019-05-16T18:22:51.983Z,101003.50
2019-05-16T18:25:26.767Z,100996.44
2019-05-16T18:27:57.340Z,100996.44
2019-05-16T18:30:28.565Z,100995.12
2019-05-16T18:32:59.938Z,100995.45
2019-05-16T18:35:31.295Z,100995.92
2019-05-16T18:38:02.712Z,100995.52
2019-05-16T18:40:36.471Z,100998.16
2019-05-16T18:43:08.216Z,101000.86
2019-05-16T18:45:39.826Z,100997.82
2019-05-16T18:48:12.117Z,101003.09
2019-05-16T18:50:43.305Z,100997.82
2019-05-16T18:53:17.648Z,100998.73
2019-05-16T18:55:48.756Z,100995.19
2019-05-16T18:58:20.124Z,101010.16
2019-05-16T19:00:51.288Z,101006.20
2019-05-16T19:03:22.696Z,101010.16
2019-05-16T19:05:57.243Z,101007.96
2019-05-16T19:08:27.888Z,101006.64
2019-05-16T19:11:00.082Z,101009.69
2019-05-16T19:13:32.647Z,101017.19
2019-05-16T19:16:06.310Z,101013.13
2019-05-16T19:18:37.322Z,101007.79
2019-05-16T19:21:09.614Z,101011.73
2019-05-16T19:23:40.910Z,100998.56
2019-05-16T19:26:13.370Z,101005.56
2019-05-16T19:28:49.024Z,101009.61
2019-05-16T19:31:22.365Z,101005.73
2019-05-16T19:33:56.543Z,101009.27
2019-05-16T19:36:27.326Z,101014.11
2019-05-16T19:38:59.268Z,101011.91
2019-05-16T19:41:31.491Z,101008.91
2019-05-16T19:44:02.970Z,101008.44
2019-05-16T19:46:34.497Z,101006.54
2019-05-16T19:49:06.461Z,101003.50
2019-05-16T19:51:39.053Z,101010.09
2019-05-16T19:54:10.434Z,101009.17
2019-05-16T19:56:41.813Z,101008.77
2019-05-16T19:59:13.104Z,101007.45
2019-05-16T20:01:46.377Z,101009.69
2019-05-16T20:04:18.496Z,101005.73
2019-05-16T20:06:50.245Z,101004.41
2019-05-16T20:09:21.756Z,101004.48
2019-05-16T20:11:53.649Z,101005.33
2019-05-16T20:14:27.201Z,100998.73
2019-05-16T20:16:58.408Z,101002.25
2019-05-16T20:19:29.723Z,101007.45
2019-05-16T20:22:00.921Z,101006.13
2019-05-16T20:24:32.295Z,101011.41
2019-05-16T20:27:07.863Z,101007.96
2019-05-16T20:29:38.442Z,101003.91
2019-05-16T20:32:11.461Z,101002.58
2019-05-16T20:34:42.720Z,100999.95
2019-05-16T20:37:14.032Z,101000.39
2019-05-16T20:39:46.598Z,100995.92
2019-05-16T20:42:18.087Z,100993.30
2019-05-16T20:44:49.735Z,100992.82
2019-05-16T20:47:21.499Z,100990.59
2019-05-16T20:49:52.944Z,100994.55
2019-05-16T20:52:26.762Z,100991.00
2019-05-16T20:54:57.935Z,100984.74
2019-05-16T20:57:29.170Z,100988.70
2019-05-16T21:00:00.403Z,100985.19
2019-05-16T21:02:31.844Z,100983.36
2019-05-16T21:05:03.028Z,100986.50
2019-05-16T21:07:34.343Z,100983.80
2019-05-16T21:10:08.044Z,100986.91
2019-05-16T21:12:40.507Z,100977.69
2019-05-16T21:15:11.978Z,100972.89
2019-05-16T21:17:43.188Z,100979.91
2019-05-16T21:20:14.428Z,100973.73
2019-05-16T21:22:47.132Z,100972.89
2019-05-16T21:25:18.932Z,100965.42
2019-05-16T21:27:50.287Z,100964.10
2019-05-16T21:30:21.552Z,100964.51
2019-05-16T21:32:52.922Z,100968.05
2019-05-16T21:35:26.820Z,100962.28
2019-05-16T21:37:57.205Z,100964.51
2019-05-16T21:40:31.453Z,100955.28
2019-05-16T21:43:02.740Z,100960.55
2019-05-16T21:45:33.970Z,100957.45
2019-05-16T21:48:07.378Z,100958.77
2019-05-16T21:50:38.376Z,100960.08
2019-05-16T21:53:09.716Z,100956.53
2019-05-16T21:55:41.235Z,100956.13
2019-05-16T21:58:12.591Z,100953.90
2019-05-16T22:00:47.427Z,100949.95
2019-05-16T22:03:19.082Z,100951.27
2019-05-16T22:05:50.359Z,100950.86
2019-05-16T22:08:21.540Z,100951.67
2019-05-16T22:10:52.804Z,100949.03
2019-05-16T22:13:26.153Z,100946.41
2019-05-16T22:15:57.492Z,100945.93
2019-05-16T22:18:29.859Z,100945.02
2019-05-16T22:21:01.059Z,100956.88
2019-05-16T22:23:32.243Z,100947.66
2019-05-16T22:26:03.507Z,100951.60
2019-05-16T22:28:37.231Z,100949.88
2019-05-16T22:31:07.783Z,100947.24
2019-05-16T22:33:39.082Z,100943.30
2019-05-16T22:36:10.564Z,100940.66
2019-05-16T22:38:42.072Z,100934.88
2019-05-16T22:41:13.405Z,100939.23
2019-05-16T22:43:46.685Z,100936.13
2019-05-16T22:46:17.936Z,100937.05
2019-05-16T22:48:49.272Z,100939.17
2019-05-16T22:51:20.398Z,100941.80
2019-05-16T22:53:51.805Z,100936.06
2019-05-16T22:56:23.035Z,100935.22
2019-05-16T22:58:56.344Z,100939.61
2019-05-16T23:01:27.320Z,100937.38
2019-05-16T23:03:58.668Z,100933.84
2019-05-16T23:06:29.906Z,100936.88
2019-05-16T23:09:01.122Z,100935.55
2019-05-16T23:11:32.894Z,100938.19
2019-05-16T23:14:06.298Z,100928.97
2019-05-16T23:16:37.649Z,100932.05
2019-05-16T23:19:08.860Z,100930.29
2019-05-16T23:21:40.123Z,100937.31
2019-05-16T23:24:11.389Z,100932.45
2019-05-16T23:26:42.784Z,100928.09
2019-05-16T23:29:16.722Z,100936.00
2019-05-16T23:31:47.354Z,100934.67
2019-05-16T23:34:18.973Z,100931.13
2019-05-16T23:36:50.072Z,100929.23
2019-05-16T23:39:21.361Z,100927.05
2019-05-16T23:41:52.487Z,100927.45
2019-05-16T23:44:23.711Z,100932.31
2019-05-16T23:46:56.343Z,100926.06
2019-05-16T23:49:28.749Z,100915.42
2019-05-16T23:52:00.096Z,100919.75
2019-05-16T23:54:31.388Z,100919.31
2019-05-16T23:57:02.637Z,100922.28
2019-05-16T23:59:36.807Z,100924.44
